ALB weather

Albany International Airport
Albany, New York, United States

Public forecast

Using degrees Fahrenheit for public forecast. Weather courtesy of forecast.io.

Current aviation weather report (METAR) for Albany International Airport

Retrieved 2019/11/12 18:51 UTC (1 hour ago):

KALB 121851Z 31016G25KT 10SM SCT032 SCT130 BKN240 M02/M09 A2997 RMK AO2 PK WND 29028/1808 SLP151 OCNL DRSN T10221094

Aviation forecast (TAF) for Albany International Airport

Retrieved 2019/11/12 18:46 UTC (1 hour ago):

TAF KALB 121744Z 1218/1318 30014G26KT P6SM BKN030 BKN120 TEMPO 1218/1220 BKN035 FM122000 31015G25KT P6SM BKN035 FM130000 31012G20KT P6SM SCT035 FM130600 30009KT P6SM SKC FM131200 31014G22KT P6SM FEW250